Terminal Aerodrome Forecast
Issued by NWS Amarillo, TX

Home | Current Version | Previous Version | Text Only | Print | Product List | Glossary On
Versions: 1 2 3 4 5 6 7 8 9 10 11 12
761
FTUS44 KAMA 210520
TAFDHT
TAF
KDHT 210520Z 2106/2206 21010KT P6SM -SHRA OVC080
      TEMPO 2109/2113 VRB20G30KT 5SM TSRA BR OVC040CB
     FM211300 20010KT P6SM -SHRA BKN025
     FM211800 18014G22KT P6SM BKN250
     FM220100 19010KT P6SM BKN250=

USA.gov is the U.S. government's official web portal to all federal, state and local government web resources and services.